Time;durP1;ratioP1;P1;durP2;ratioP2;P2;SDS_P1;SDS_P2;PMS_P1;PMS_P2;Temp;Humidity;BMP_temperature;BMP_pressure;BME280_temperature;BME280_humidity;BME280_pressure;Samples;Min_cycle;Max_cycle;Signal;HPM_P1;HPM_P2
2023/12/16 00:01:45;;;;;;;6.72;1.75;;;;;;;9.97;99.57;102741.78;4914539;29;20031;-70
2023/12/16 00:04:11;;;;;;;5.15;1.92;;;;;;;9.73;99.96;102739.31;4928902;29;20036;-70
2023/12/16 00:06:36;;;;;;;3.75;1.67;;;;;;;9.87;100.00;102731.25;4931294;29;20413;-70
2023/12/16 00:09:02;;;;;;;7.07;1.60;;;;;;;9.77;100.00;102724.16;4943465;29;20059;-70
2023/12/16 00:11:27;;;;;;;4.65;1.95;;;;;;;9.82;100.00;102720.56;4945430;29;20162;-70
2023/12/16 00:13:53;;;;;;;2.38;1.58;;;;;;;9.91;100.00;102722.25;4929658;29;20046;-70
2023/12/16 00:16:18;;;;;;;6.00;2.15;;;;;;;9.79;100.00;102731.94;4946517;29;20024;-70
2023/12/16 00:18:47;;;;;;;3.08;1.90;;;;;;;9.63;100.00;102725.22;4943746;29;20043;-70
2023/12/16 00:21:12;;;;;;;4.32;3.05;;;;;;;9.70;100.00;102739.88;4931481;29;20596;-70
2023/12/16 00:23:37;;;;;;;4.97;1.90;;;;;;;9.67;100.00;102737.78;4931231;29;20529;-70
2023/12/16 00:26:03;;;;;;;5.50;1.88;;;;;;;9.75;100.00;102728.22;4930904;29;20063;-70
2023/12/16 00:28:28;;;;;;;4.82;1.77;;;;;;;9.76;100.00;102737.88;4926980;29;20405;-70
2023/12/16 00:30:54;;;;;;;3.28;1.50;;;;;;;9.91;99.98;102732.25;4946518;29;20068;-70
2023/12/16 00:33:19;;;;;;;2.95;1.80;;;;;;;9.77;100.00;102739.50;4945024;28;20455;-70
2023/12/16 00:35:45;;;;;;;2.75;1.33;;;;;;;9.49;100.00;102740.53;4945769;29;20070;-70
2023/12/16 00:38:10;;;;;;;2.33;1.58;;;;;;;9.58;100.00;102731.47;4932011;29;20145;-70
2023/12/16 00:40:36;;;;;;;4.55;2.33;;;;;;;9.64;100.00;102745.66;4932583;29;20110;-70
2023/12/16 00:43:02;;;;;;;3.10;1.40;;;;;;;9.67;99.39;102747.75;4945173;28;20042;-70
2023/12/16 00:45:28;;;;;;;3.33;2.97;;;;;;;9.66;99.83;102740.75;4948906;29;20031;-70
2023/12/16 00:47:53;;;;;;;5.22;1.90;;;;;;;9.65;99.24;102739.19;4915838;29;20641;-70
2023/12/16 00:50:19;;;;;;;5.70;2.30;;;;;;;9.49;100.00;102743.22;4932080;29;20031;-70
2023/12/16 00:52:44;;;;;;;4.50;1.92;;;;;;;9.60;99.65;102739.28;4932273;29;20032;-70
2023/12/16 00:55:10;;;;;;;3.88;1.67;;;;;;;9.49;100.00;102738.66;4963843;28;20035;-70
2023/12/16 00:57:35;;;;;;;4.07;2.03;;;;;;;9.36;100.00;102738.63;4933964;29;20521;-70
2023/12/16 01:00:01;;;;;;;2.20;1.30;;;;;;;9.45;99.70;102750.28;4916581;29;20051;-70
2023/12/16 01:02:27;;;;;;;4.35;2.05;;;;;;;9.37;100.00;102746.38;4928426;29;20122;-70
2023/12/16 01:04:53;;;;;;;4.82;1.70;;;;;;;9.53;99.70;102741.53;4939864;29;20169;-70
2023/12/16 01:07:18;;;;;;;10.30;1.90;;;;;;;9.62;99.47;102739.78;4960360;28;20043;-71
2023/12/16 01:09:43;;;;;;;6.38;1.77;;;;;;;9.56;99.24;102735.59;4943501;29;20027;-70
2023/12/16 01:12:09;;;;;;;5.95;2.08;;;;;;;9.43;99.90;102737.13;4928574;29;20565;-70
2023/12/16 01:14:34;;;;;;;2.83;1.75;;;;;;;9.51;99.43;102733.78;4943545;29;20038;-70
2023/12/16 01:17:00;;;;;;;6.78;2.05;;;;;;;9.65;98.94;102739.19;4928704;29;20462;-70
2023/12/16 01:19:26;;;;;;;9.07;1.95;;;;;;;9.40;100.00;102743.13;4943455;29;20406;-70
2023/12/16 01:21:52;;;;;;;6.07;2.70;;;;;;;9.39;100.00;102756.84;4941597;28;20047;-70
2023/12/16 01:24:17;;;;;;;6.65;2.00;;;;;;;9.41;100.00;102760.81;4942406;29;20035;-70
2023/12/16 01:26:43;;;;;;;4.13;1.65;;;;;;;9.49;100.00;102764.72;4928388;29;20027;-70
2023/12/16 01:29:08;;;;;;;3.40;1.95;;;;;;;9.51;100.00;102773.31;4958809;28;20545;-70
2023/12/16 01:31:34;;;;;;;4.72;2.63;;;;;;;9.51;100.00;102762.53;4925689;29;20032;-70
2023/12/16 01:33:59;;;;;;;13.73;1.77;;;;;;;9.40;100.00;102764.63;4927685;29;20175;-70
2023/12/16 01:36:25;;;;;;;1.33;1.20;;;;;;;9.52;100.00;102762.28;4943473;28;20035;-70
2023/12/16 01:38:50;;;;;;;2.35;1.25;;;;;;;9.48;100.00;102755.09;4929570;29;20039;-70
2023/12/16 01:41:15;;;;;;;2.65;1.42;;;;;;;9.48;100.00;102765.84;4928640;29;20039;-70
2023/12/16 01:43:41;;;;;;;8.63;2.38;;;;;;;9.44;99.85;102759.44;4929514;29;20036;-70
2023/12/16 01:46:07;;;;;;;5.43;1.45;;;;;;;9.43;100.00;102755.16;4929511;28;20495;-70
2023/12/16 01:48:33;;;;;;;1.65;1.33;;;;;;;9.52;99.65;102748.81;4928774;29;20040;-70
2023/12/16 01:51:03;;;;;;;1.95;1.08;;;;;;;9.49;99.64;102746.72;4927784;29;20036;-70
2023/12/16 01:53:31;;;;;;;2.78;1.27;;;;;;;9.55;98.59;102745.53;4929031;29;20163;-71
2023/12/16 01:55:57;;;;;;;1.92;1.35;;;;;;;9.52;98.53;102738.06;4927729;29;20035;-70
2023/12/16 01:58:23;;;;;;;1.60;1.33;;;;;;;9.39;98.92;102738.03;4929718;29;20038;-70
2023/12/16 02:00:52;;;;;;;5.00;1.30;;;;;;;9.43;99.14;102737.13;4927625;29;20028;-70
2023/12/16 02:03:19;;;;;;;5.60;1.75;;;;;;;9.43;98.51;102736.31;4957984;28;20150;-70
2023/12/16 02:05:45;;;;;;;3.45;2.00;;;;;;;9.47;98.22;102740.03;4944175;29;20068;-71
2023/12/16 02:08:10;;;;;;;11.23;1.42;;;;;;;9.39;98.22;102735.34;4928063;29;20110;-70
2023/12/16 02:10:36;;;;;;;2.20;1.40;;;;;;;9.27;98.46;102735.00;4927872;29;20549;-70
2023/12/16 02:13:02;;;;;;;3.63;1.58;;;;;;;9.43;98.36;102729.06;4928865;29;20027;-70
2023/12/16 02:15:28;;;;;;;1.75;1.20;;;;;;;9.35;98.59;102721.66;4931249;29;20031;-70
2023/12/16 02:17:53;;;;;;;12.73;1.95;;;;;;;9.42;97.61;102716.72;4930851;29;20051;-70
2023/12/16 02:20:19;;;;;;;3.72;1.40;;;;;;;9.39;97.93;102722.69;4961443;28;20027;-70
2023/12/16 02:22:47;;;;;;;3.17;1.52;;;;;;;9.34;98.45;102721.97;4926861;29;20509;-70
2023/12/16 02:25:13;;;;;;;1.73;1.23;;;;;;;9.42;97.96;102718.63;4931101;29;20039;-70
2023/12/16 02:27:43;;;;;;;4.32;1.55;;;;;;;9.53;96.97;102728.91;4930328;29;20028;-70
2023/12/16 02:30:09;;;;;;;6.88;1.75;;;;;;;9.55;96.81;102732.09;4929181;29;20039;-70
2023/12/16 02:32:34;;;;;;;5.03;1.23;;;;;;;9.49;97.23;102735.16;4928668;29;20031;-70
2023/12/16 02:35:00;;;;;;;2.47;1.33;;;;;;;9.53;96.81;102728.09;4930577;29;20039;-70
2023/12/16 02:37:26;;;;;;;2.15;1.63;;;;;;;9.59;96.58;102719.66;4945584;29;20070;-70
2023/12/16 02:39:51;;;;;;;1.33;0.95;;;;;;;9.61;96.45;102722.84;4944378;28;20035;-70
2023/12/16 02:42:17;;;;;;;4.15;1.25;;;;;;;9.65;95.89;102723.84;4929580;29;20063;-70
2023/12/16 02:44:42;;;;;;;5.63;1.27;;;;;;;9.59;96.20;102725.03;4944094;29;20063;-70
2023/12/16 02:47:08;;;;;;;1.33;1.15;;;;;;;9.60;95.77;102718.53;4933669;29;20154;-70
2023/12/16 02:49:33;;;;;;;1.88;1.15;;;;;;;9.57;96.13;102718.34;4930080;29;20582;-70
2023/12/16 02:51:59;;;;;;;1.80;0.88;;;;;;;9.52;96.17;102719.25;4929002;29;20063;-70
2023/12/16 02:54:26;;;;;;;3.33;1.27;;;;;;;9.58;95.60;102717.25;4930520;29;20043;-70
2023/12/16 02:56:51;;;;;;;1.40;1.05;;;;;;;9.62;95.78;102720.94;4944610;29;20101;-70
2023/12/16 02:59:16;;;;;;;1.05;0.77;;;;;;;9.54;96.02;102733.16;4943061;29;20028;-70
2023/12/16 03:01:42;;;;;;;3.40;1.00;;;;;;;9.63;95.75;102727.91;4929710;29;20038;-70
2023/12/16 03:04:10;;;;;;;4.28;0.95;;;;;;;9.71;95.17;102736.09;4931169;29;20023;-70
2023/12/16 03:06:41;;;;;;;5.78;1.15;;;;;;;9.75;94.33;102728.22;4943650;29;20043;-70
2023/12/16 03:09:07;;;;;;;;;;;;;;;9.78;94.43;102723.06;4928031;29;20040;-70
2023/12/16 03:11:32;;;;;;;8.85;1.65;;;;;;;9.61;95.03;102711.28;4944134;29;19930;-70
2023/12/16 03:13:58;;;;;;;3.03;1.00;;;;;;;9.72;94.61;102699.22;4932486;29;20043;-70
2023/12/16 03:16:23;;;;;;;2.15;1.02;;;;;;;9.65;94.77;102696.13;4931073;29;20034;-70
2023/12/16 03:18:49;;;;;;;0.98;0.68;;;;;;;9.74;94.52;102699.72;4935565;29;20055;-70
2023/12/16 03:21:14;;;;;;;1.85;1.05;;;;;;;9.76;93.76;102709.09;4933453;29;20419;-70
2023/12/16 03:23:39;;;;;;;1.30;0.98;;;;;;;9.64;94.36;102716.84;4948334;28;20078;-70
2023/12/16 03:26:06;;;;;;;2.00;1.08;;;;;;;9.59;94.93;102710.78;4930063;29;20035;-70
2023/12/16 03:28:32;;;;;;;1.60;0.70;;;;;;;9.65;94.25;102699.63;4946406;29;20042;-70
2023/12/16 03:30:57;;;;;;;1.73;1.00;;;;;;;9.54;94.38;102692.81;4948280;29;20170;-70
2023/12/16 03:33:23;;;;;;;3.13;1.10;;;;;;;9.67;93.41;102699.31;4934377;29;20044;-70
2023/12/16 03:35:48;;;;;;;4.40;0.80;;;;;;;9.60;93.39;102701.63;4935326;29;20034;-70
2023/12/16 03:38:14;;;;;;;1.35;1.25;;;;;;;9.60;92.91;102715.06;4933270;29;20031;-70
2023/12/16 03:40:39;;;;;;;9.10;1.13;;;;;;;9.62;92.60;102723.66;4933713;29;20046;-70
2023/12/16 03:43:04;;;;;;;1.02;0.85;;;;;;;9.59;92.87;102732.28;4933324;29;20038;-70
2023/12/16 03:45:30;;;;;;;3.38;0.90;;;;;;;9.64;92.91;102745.66;4932681;29;20118;-70
2023/12/16 03:47:56;;;;;;;1.98;1.38;;;;;;;9.61;92.75;102743.56;4932392;29;20036;-70
2023/12/16 03:50:21;;;;;;;1.95;1.40;;;;;;;9.56;94.14;102741.72;4930936;29;20114;-70
2023/12/16 03:52:47;;;;;;;0.77;0.60;;;;;;;9.60;93.35;102744.66;4947233;28;20521;-70
2023/12/16 03:55:12;;;;;;;1.60;0.98;;;;;;;9.68;93.11;102739.38;4931909;29;20059;-70
2023/12/16 03:57:37;;;;;;;1.15;0.70;;;;;;;9.69;92.57;102740.19;4945588;29;20035;-70
2023/12/16 04:00:03;;;;;;;2.42;1.05;;;;;;;9.76;92.71;102741.38;4947601;29;20024;-70
2023/12/16 04:02:37;;;;;;;2.22;0.98;;;;;;;9.75;92.39;102755.13;4932578;29;20044;-70
2023/12/16 04:05:03;;;;;;;7.53;1.75;;;;;;;9.80;91.72;102769.28;4931785;29;20421;-70
2023/12/16 04:07:28;;;;;;;1.25;1.15;;;;;;;9.76;91.83;102778.25;4933412;29;20042;-70
2023/12/16 04:09:54;;;;;;;4.00;1.08;;;;;;;9.67;92.19;102775.47;4933883;29;20406;-70
2023/12/16 04:12:19;;;;;;;1.70;0.98;;;;;;;9.71;92.46;102784.53;4931011;29;20035;-70
2023/12/16 04:14:46;;;;;;;3.25;1.00;;;;;;;9.76;91.83;102780.94;4940747;29;20084;-70
2023/12/16 04:17:11;;;;;;;2.20;1.10;;;;;;;9.72;92.66;102788.00;4962787;28;20470;-70
2023/12/16 04:19:37;;;;;;;1.05;0.82;;;;;;;9.77;92.38;102788.72;4933796;29;20031;-70
2023/12/16 04:22:02;;;;;;;3.20;1.00;;;;;;;9.77;92.01;102796.00;4947513;28;20035;-70
2023/12/16 04:24:28;;;;;;;1.50;1.38;;;;;;;9.76;92.43;102789.00;4960680;28;20058;-70
2023/12/16 04:26:55;;;;;;;2.85;1.08;;;;;;;9.80;92.11;102787.31;4947477;29;20106;-70
2023/12/16 04:29:21;;;;;;;4.95;1.58;;;;;;;9.75;91.89;102777.47;4932396;29;20034;-70
2023/12/16 04:31:46;;;;;;;0.63;0.63;;;;;;;9.82;91.87;102780.56;4930920;29;20047;-70
2023/12/16 04:34:11;;;;;;;0.70;0.70;;;;;;;9.80;92.10;102784.63;4927267;29;20245;-70
2023/12/16 04:36:37;;;;;;;0.70;0.70;;;;;;;9.88;91.16;102775.88;4948634;29;20035;-71
2023/12/16 04:39:07;;;;;;;0.93;0.88;;;;;;;9.94;91.05;102777.38;4932863;29;20035;-71
2023/12/16 04:41:33;;;;;;;2.75;0.98;;;;;;;9.84;91.37;102780.25;4931981;29;20055;-70
2023/12/16 04:43:58;;;;;;;1.52;0.98;;;;;;;9.79;91.39;102777.66;4948264;29;20031;-70
2023/12/16 04:46:24;;;;;;;3.67;0.98;;;;;;;9.84;91.54;102774.88;4935781;29;20035;-70
2023/12/16 04:48:49;;;;;;;1.00;0.57;;;;;;;9.82;91.33;102772.50;4931280;29;20126;-70
2023/12/16 04:51:15;;;;;;;2.78;1.30;;;;;;;9.82;91.21;102769.78;4931787;29;20506;-70
2023/12/16 04:53:41;;;;;;;4.60;1.02;;;;;;;9.79;91.99;102767.69;4930770;29;20063;-70
2023/12/16 04:56:07;;;;;;;2.90;1.00;;;;;;;9.76;91.35;102770.97;4928123;29;20032;-70
2023/12/16 04:58:32;;;;;;;1.63;0.95;;;;;;;9.71;91.73;102775.66;4929533;29;20047;-71
2023/12/16 05:00:58;;;;;;;0.82;0.82;;;;;;;9.50;92.08;102785.97;4944690;28;20515;-70
2023/12/16 05:03:24;;;;;;;1.88;1.05;;;;;;;9.60;92.31;102787.69;4931848;29;20043;-70
2023/12/16 05:05:49;;;;;;;4.47;1.15;;;;;;;9.57;92.57;102790.97;4933214;29;20039;-70
2023/12/16 05:08:15;;;;;;;6.90;1.80;;;;;;;9.46;92.18;102786.84;4939354;29;20036;-70
2023/12/16 05:10:41;;;;;;;2.28;1.10;;;;;;;9.23;92.83;102780.50;4947491;29;20454;-70
2023/12/16 05:13:12;;;;;;;1.77;0.93;;;;;;;9.52;92.08;102785.69;4944326;28;20059;-70
2023/12/16 05:15:38;;;;;;;4.88;1.00;;;;;;;9.53;91.77;102780.00;4928998;29;20595;-71
2023/12/16 05:18:05;;;;;;;2.05;0.90;;;;;;;9.44;92.21;102783.66;4960654;28;20036;-70
2023/12/16 05:20:31;;;;;;;3.35;0.98;;;;;;;9.39;92.84;102775.69;4931641;29;20028;-70
2023/12/16 05:22:57;;;;;;;2.13;0.88;;;;;;;9.51;92.36;102789.44;4930972;29;20034;-70
2023/12/16 05:25:22;;;;;;;1.25;0.80;;;;;;;9.55;92.35;102785.88;4930706;29;20045;-70
2023/12/16 05:27:47;;;;;;;5.30;0.80;;;;;;;9.62;91.99;102785.50;4928936;29;20502;-70
2023/12/16 05:30:13;;;;;;;4.60;1.13;;;;;;;9.54;92.21;102791.56;4930262;29;20499;-70
2023/12/16 05:32:38;;;;;;;3.20;1.17;;;;;;;9.62;92.05;102796.28;4928759;29;20043;-70
2023/12/16 05:35:04;;;;;;;2.28;1.25;;;;;;;9.69;91.26;102802.06;4932364;29;20554;-70
2023/12/16 05:37:30;;;;;;;2.20;1.17;;;;;;;9.75;90.63;102793.63;4929561;29;20039;-70
2023/12/16 05:39:55;;;;;;;2.00;1.00;;;;;;;9.73;90.84;102786.91;4962384;28;21271;-71
2023/12/16 05:42:21;;;;;;;2.95;1.45;;;;;;;9.73;90.87;102785.03;4929990;29;20123;-70
2023/12/16 05:44:46;;;;;;;1.85;0.98;;;;;;;9.77;90.75;102790.63;4931360;29;20040;-70
2023/12/16 05:47:12;;;;;;;5.45;1.48;;;;;;;9.66;91.35;102791.88;4928108;29;20122;-70
2023/12/16 05:49:37;;;;;;;0.88;0.75;;;;;;;9.77;90.75;102790.63;4932076;29;20031;-70
2023/12/16 05:52:03;;;;;;;4.72;1.30;;;;;;;9.78;90.10;102797.59;4931509;29;20124;-71
2023/12/16 05:54:28;;;;;;;4.30;1.30;;;;;;;9.78;89.44;102790.31;4931039;29;20049;-70
2023/12/16 05:56:54;;;;;;;1.40;0.90;;;;;;;9.85;89.31;102787.25;4930374;29;20110;-70
2023/12/16 05:59:20;;;;;;;1.73;1.60;;;;;;;9.69;90.14;102775.97;4963511;28;20032;-70
2023/12/16 06:01:45;;;;;;;1.63;1.13;;;;;;;9.67;90.19;102771.97;4944468;28;20699;-70
2023/12/16 06:04:13;;;;;;;5.63;2.17;;;;;;;9.72;89.76;102767.28;4942556;29;20037;-70
2023/12/16 06:06:38;;;;;;;1.75;1.13;;;;;;;9.54;90.11;102765.44;4942048;29;20027;-70
2023/12/16 06:09:04;;;;;;;4.68;1.50;;;;;;;9.69;89.71;102765.19;4956424;28;20054;-70
2023/12/16 06:11:29;;;;;;;1.83;1.23;;;;;;;9.67;89.33;102753.94;4928770;29;20053;-70
2023/12/16 06:13:54;;;;;;;2.33;1.17;;;;;;;9.77;88.57;102755.63;4938375;29;20028;-70
2023/12/16 06:16:20;;;;;;;3.38;1.83;;;;;;;9.65;89.36;102747.25;4928500;29;20082;-70
2023/12/16 06:18:47;;;;;;;1.67;1.13;;;;;;;9.51;89.68;102738.34;4929067;29;20042;-70
2023/12/16 06:21:15;;;;;;;2.17;0.95;;;;;;;9.48;89.86;102741.63;4945991;29;20553;-70
2023/12/16 06:23:41;;;;;;;3.25;1.00;;;;;;;9.44;90.46;102746.00;4931017;29;20039;-70
2023/12/16 06:26:06;;;;;;;2.75;1.15;;;;;;;9.43;90.30;102736.31;4928251;29;20086;-70
2023/12/16 06:28:34;;;;;;;0.98;0.85;;;;;;;9.45;90.23;102753.78;4944281;29;20046;-70
2023/12/16 06:31:00;;;;;;;1.15;0.95;;;;;;;9.51;89.41;102743.72;4929137;29;20491;-70
2023/12/16 06:33:25;;;;;;;3.75;1.67;;;;;;;9.57;89.48;102742.53;4956758;28;20048;-71
2023/12/16 06:35:51;;;;;;;3.65;1.15;;;;;;;9.50;89.57;102752.91;4962811;28;20439;-71
2023/12/16 06:38:17;;;;;;;6.55;1.25;;;;;;;9.47;89.72;102745.41;4945631;29;20047;-70
2023/12/16 06:40:42;;;;;;;0.68;0.60;;;;;;;9.52;89.58;102746.13;4931288;29;20414;-70
2023/12/16 06:43:08;;;;;;;1.77;0.88;;;;;;;9.52;88.68;102746.13;4945262;28;20731;-70
2023/12/16 06:45:33;;;;;;;1.00;0.95;;;;;;;9.55;88.29;102745.53;4931312;29;20105;-70
2023/12/16 06:47:59;;;;;;;1.65;1.45;;;;;;;9.55;89.07;102750.91;4933716;29;20032;-70
2023/12/16 06:50:25;;;;;;;3.20;1.50;;;;;;;9.62;88.17;102756.69;4935512;29;20586;-70
2023/12/16 06:52:50;;;;;;;2.05;1.17;;;;;;;9.56;88.27;102749.81;4934920;29;20143;-70
2023/12/16 06:55:16;;;;;;;1.58;0.90;;;;;;;9.39;88.95;102740.72;4964817;28;20046;-70
2023/12/16 06:57:41;;;;;;;2.33;1.27;;;;;;;9.48;88.79;102738.94;4934413;29;20379;-71
2023/12/16 07:00:09;;;;;;;2.50;1.05;;;;;;;9.39;89.69;102746.88;4948635;29;20134;-70
2023/12/16 07:02:36;;;;;;;1.55;1.00;;;;;;;9.49;88.89;102745.91;4947921;28;20430;-70
2023/12/16 07:05:02;;;;;;;1.83;1.10;;;;;;;9.34;88.50;102752.34;4931585;29;20052;-70
2023/12/16 07:07:28;;;;;;;4.72;1.17;;;;;;;9.39;88.83;102757.63;4934219;29;20473;-70
2023/12/16 07:09:53;;;;;;;1.10;0.82;;;;;;;9.50;88.10;102752.91;4934672;29;20525;-70
2023/12/16 07:12:19;;;;;;;2.88;1.10;;;;;;;9.43;88.04;102757.84;4947264;28;20347;-69
2023/12/16 07:14:44;;;;;;;2.05;1.38;;;;;;;9.35;88.61;102748.56;4933050;29;20040;-70
2023/12/16 07:17:10;;;;;;;2.72;1.13;;;;;;;9.43;88.55;102744.41;4937312;29;20490;-70
2023/12/16 07:19:35;;;;;;;1.80;1.05;;;;;;;9.19;89.67;102741.06;4934772;29;20035;-69
2023/12/16 07:22:01;;;;;;;2.95;1.42;;;;;;;9.34;88.84;102746.16;4965001;28;20130;-69
2023/12/16 07:24:26;;;;;;;3.15;1.17;;;;;;;9.38;88.02;102736.44;4937169;29;20094;-70
2023/12/16 07:26:52;;;;;;;2.75;1.13;;;;;;;9.35;88.10;102734.34;4949195;29;20035;-70
2023/12/16 07:29:17;;;;;;;1.98;1.20;;;;;;;9.30;88.73;102729.03;4929475;29;20036;-70
2023/12/16 07:31:49;;;;;;;1.55;1.25;;;;;;;9.21;88.73;102734.28;4931363;29;20031;-70
2023/12/16 07:34:15;;;;;;;3.30;1.25;;;;;;;9.08;89.18;102751.16;4963607;28;20523;-70
2023/12/16 07:36:41;;;;;;;4.85;1.13;;;;;;;9.18;89.14;102744.81;4933670;29;20036;-70
2023/12/16 07:39:06;;;;;;;2.03;1.17;;;;;;;9.28;88.69;102737.41;4932518;29;20144;-69
2023/12/16 07:41:34;;;;;;;3.47;1.23;;;;;;;9.28;88.75;102740.09;4933524;29;20252;-70
2023/12/16 07:43:59;;;;;;;5.70;1.15;;;;;;;9.35;88.62;102731.66;4933600;29;20023;-70
2023/12/16 07:46:25;;;;;;;10.40;1.55;;;;;;;9.38;88.72;102744.50;4962999;28;20577;-70
2023/12/16 07:48:50;;;;;;;3.10;0.95;;;;;;;9.29;89.45;102740.88;4933708;29;20032;-70
2023/12/16 07:51:17;;;;;;;2.15;1.17;;;;;;;9.48;88.20;102745.13;4946586;29;20114;-70
2023/12/16 07:53:46;;;;;;;1.92;1.55;;;;;;;9.36;88.87;102741.31;4934401;29;20130;-70
2023/12/16 07:56:38;;;;;;;1.23;0.98;;;;;;;9.43;88.77;102755.97;4929524;28;20035;-70
2023/12/16 07:59:03;;;;;;;5.60;1.42;;;;;;;9.23;89.53;102750.94;4930788;29;20059;-70
2023/12/16 08:01:29;;;;;;;1.42;1.05;;;;;;;9.42;88.92;102740.13;4947556;28;20510;-70
2023/12/16 08:03:54;;;;;;;1.65;1.00;;;;;;;9.36;89.35;102746.69;4932821;29;20039;-70
2023/12/16 08:06:20;;;;;;;1.23;1.10;;;;;;;9.49;89.27;102751.28;4932687;29;20036;-70
2023/12/16 08:08:46;;;;;;;13.60;1.92;;;;;;;9.66;87.47;102748.81;4933614;29;20569;-70
2023/12/16 08:11:12;;;;;;;2.45;1.00;;;;;;;9.56;88.66;102757.09;4932730;29;20114;-70
2023/12/16 08:13:37;;;;;;;1.13;0.90;;;;;;;9.53;89.10;102769.25;4934992;29;20019;-70
2023/12/16 08:16:11;;;;;;;1.38;0.77;;;;;;;9.64;88.52;102769.88;4931828;29;20103;-69
2023/12/16 08:18:37;;;;;;;2.78;1.27;;;;;;;9.81;88.18;102768.19;4933320;29;20410;-70
2023/12/16 08:21:03;;;;;;;1.52;1.02;;;;;;;9.73;88.40;102763.50;4930165;29;20115;-70
2023/12/16 08:23:28;;;;;;;2.58;1.25;;;;;;;9.71;88.51;102757.63;4944791;28;20503;-70
2023/12/16 08:25:54;;;;;;;3.13;1.20;;;;;;;9.69;88.79;102742.88;4930591;29;20031;-70
2023/12/16 08:28:19;;;;;;;1.90;1.05;;;;;;;9.90;87.84;102734.13;4929555;29;20032;-70
2023/12/16 08:30:46;;;;;;;1.63;1.15;;;;;;;9.90;88.27;102730.63;4930335;29;20549;-70
2023/12/16 08:33:12;;;;;;;2.85;1.15;;;;;;;10.03;87.65;102729.84;4928410;29;20042;-70
2023/12/16 08:35:37;;;;;;;4.55;0.93;;;;;;;10.13;87.33;102735.03;4930062;29;20180;-70
2023/12/16 08:38:03;;;;;;;1.33;1.15;;;;;;;10.02;87.61;102736.31;4931439;28;20035;-70
2023/12/16 08:40:28;;;;;;;11.98;1.35;;;;;;;10.16;88.74;102729.09;4946485;29;20039;-70
2023/12/16 08:42:54;;;;;;;1.15;1.05;;;;;;;10.32;88.35;102729.53;4931727;29;20028;-70
2023/12/16 08:45:19;;;;;;;1.02;0.95;;;;;;;10.51;87.77;102728.31;4932276;29;20027;-70
2023/12/16 08:47:47;;;;;;;1.98;0.73;;;;;;;10.47;87.85;102724.63;4932592;29;20083;-70
2023/12/16 08:50:12;;;;;;;1.33;1.00;;;;;;;10.53;87.05;102722.66;4928564;29;20755;-70
2023/12/16 08:52:38;;;;;;;4.63;1.15;;;;;;;10.60;88.23;102725.72;4931391;29;20066;-70
2023/12/16 08:55:04;;;;;;;2.47;1.15;;;;;;;10.44;88.18;102722.53;4944590;29;20063;-69
2023/12/16 08:57:30;;;;;;;7.18;1.55;;;;;;;10.54;86.95;102719.63;4926080;29;20566;-69
2023/12/16 08:59:57;;;;;;;5.45;1.27;;;;;;;10.46;87.06;102722.25;4927384;29;20032;-69
2023/12/16 09:02:23;;;;;;;1.10;0.98;;;;;;;10.31;88.14;102718.00;4943895;28;21310;-70
2023/12/16 09:04:49;;;;;;;1.20;1.00;;;;;;;10.32;88.52;102722.25;4929882;29;20404;-70
2023/12/16 09:07:14;;;;;;;6.85;1.45;;;;;;;10.18;89.04;102728.78;4929988;29;20059;-70
2023/12/16 09:09:40;;;;;;;3.35;1.15;;;;;;;9.99;91.82;102742.28;4927238;29;20054;-70
2023/12/16 09:12:06;;;;;;;2.90;1.52;;;;;;;9.98;90.70;102729.94;4944395;28;20043;-70
2023/12/16 09:14:32;;;;;;;8.38;1.35;;;;;;;10.19;90.57;102733.03;4927300;29;20035;-70
2023/12/16 09:16:58;;;;;;;3.05;1.27;;;;;;;10.32;89.91;102737.63;4928121;29;20050;-70
2023/12/16 09:19:23;;;;;;;4.60;1.10;;;;;;;10.20;89.89;102745.44;4929479;29;20115;-69
2023/12/16 09:21:49;;;;;;;3.00;1.75;;;;;;;10.07;91.49;102740.78;4929669;29;20063;-70
2023/12/16 09:24:15;;;;;;;2.45;1.23;;;;;;;9.89;92.32;102745.97;4929287;29;20023;-70
2023/12/16 09:26:40;;;;;;;8.55;2.10;;;;;;;10.06;91.63;102736.53;4928558;29;20200;-70
2023/12/16 09:29:06;;;;;;;4.55;1.60;;;;;;;10.01;92.35;102732.81;4928381;29;20058;-71
2023/12/16 09:31:34;;;;;;;2.97;2.20;;;;;;;10.12;92.49;102741.53;4925583;29;20036;-70
2023/12/16 09:34:00;;;;;;;5.32;1.65;;;;;;;10.19;91.81;102741.13;4933227;29;20059;-69
2023/12/16 09:36:27;;;;;;;1.88;1.35;;;;;;;10.14;92.76;102750.13;4932319;29;20441;-70
2023/12/16 09:38:57;;;;;;;3.50;1.98;;;;;;;9.83;94.22;102751.75;4929331;29;20501;-70
2023/12/16 09:41:33;;;;;;;5.72;1.73;;;;;;;10.17;93.13;102754.88;4930129;29;20098;-70
2023/12/16 09:43:59;;;;;;;6.25;2.00;;;;;;;9.97;94.04;102750.66;4944118;29;20163;-70
2023/12/16 09:46:29;;;;;;;2.60;1.45;;;;;;;10.06;94.23;102760.75;4929764;29;20043;-70
2023/12/16 09:48:55;;;;;;;2.85;1.63;;;;;;;10.23;93.22;102750.19;4931412;29;20032;-70
2023/12/16 09:51:22;;;;;;;10.60;2.75;;;;;;;10.31;92.84;102742.22;4932114;29;20838;-70
2023/12/16 09:53:52;;;;;;;5.05;2.15;;;;;;;10.31;92.71;102744.13;4927823;29;20569;-69
2023/12/16 09:56:18;;;;;;;8.95;2.15;;;;;;;10.21;93.32;102749.69;4929944;29;20044;-70
2023/12/16 09:58:51;;;;;;;3.38;1.75;;;;;;;10.07;94.98;102746.97;4943346;28;20103;-69
2023/12/16 10:01:17;;;;;;;3.25;1.70;;;;;;;10.12;94.53;102759.59;4960718;28;20035;-69
2023/12/16 10:03:45;;;;;;;5.60;2.60;;;;;;;10.10;94.85;102751.81;4927243;29;20036;-70
2023/12/16 10:06:11;;;;;;;5.35;2.47;;;;;;;9.98;96.06;102749.59;4932973;29;20036;-70
2023/12/16 10:08:39;;;;;;;5.68;2.58;;;;;;;10.00;95.75;102749.28;4929346;29;20046;-70
2023/12/16 10:11:05;;;;;;;7.45;2.53;;;;;;;9.79;96.83;102746.16;4938863;29;20490;-70
2023/12/16 10:13:58;;;;;;;3.88;2.10;;;;;;;10.14;96.16;102746.63;4926527;29;20123;-70
2023/12/16 10:16:26;;;;;;;3.60;1.85;;;;;;;10.16;95.23;102739.84;4928130;29;20048;-70
2023/12/16 10:18:52;;;;;;;4.43;2.28;;;;;;;10.05;95.60;102743.78;4929388;29;20054;-70
2023/12/16 10:21:36;;;;;;;4.90;2.65;;;;;;;10.25;94.90;102727.25;4926080;29;20050;-70
2023/12/16 10:24:02;;;;;;;4.65;2.60;;;;;;;10.02;96.28;102728.25;4927300;29;20047;-70
2023/12/16 10:26:30;;;;;;;4.10;2.70;;;;;;;9.99;96.91;102715.38;4939261;29;20044;-69
2023/12/16 10:28:57;;;;;;;5.57;3.08;;;;;;;9.98;96.68;102716.47;4952827;28;20055;-70
2023/12/16 10:31:24;;;;;;;5.70;2.70;;;;;;;10.14;95.99;102709.75;4926874;29;20032;-70
2023/12/16 10:33:50;;;;;;;12.30;3.25;;;;;;;10.23;95.75;102707.13;4917928;29;20059;-69
2023/12/16 10:36:16;;;;;;;6.32;2.78;;;;;;;10.23;95.78;102701.72;4925811;29;20036;-70
2023/12/16 10:38:45;;;;;;;4.78;2.72;;;;;;;10.31;95.63;102701.84;4941647;28;20073;-70
2023/12/16 10:41:10;;;;;;;6.00;2.22;;;;;;;10.27;95.34;102691.97;4926768;29;20094;-70
2023/12/16 10:43:37;;;;;;;4.65;2.38;;;;;;;10.13;96.86;102696.56;4922818;29;20031;-70
2023/12/16 10:46:06;;;;;;;8.95;3.15;;;;;;;10.19;95.65;102688.09;4941389;29;20032;-69
2023/12/16 10:48:35;;;;;;;4.63;2.88;;;;;;;10.08;96.21;102691.25;4928191;29;20118;-70
2023/12/16 10:51:05;;;;;;;3.40;2.10;;;;;;;9.92;97.40;102682.69;4943589;29;20040;-70
2023/12/16 10:53:48;;;;;;;4.10;2.42;;;;;;;10.15;96.63;102683.59;4941246;29;20043;-70
2023/12/16 10:56:21;;;;;;;6.50;2.83;;;;;;;9.99;97.88;102675.81;4927338;29;20114;-70
2023/12/16 10:59:10;;;;;;;7.93;2.88;;;;;;;9.99;97.10;102675.00;4928744;29;20039;-70
2023/12/16 11:01:39;;;;;;;10.70;2.70;;;;;;;10.02;97.36;102679.81;4920175;29;20058;-70
2023/12/16 11:04:13;;;;;;;9.90;2.42;;;;;;;10.18;96.64;102672.25;4969338;28;20553;-70
2023/12/16 11:06:57;;;;;;;5.38;2.42;;;;;;;10.10;97.06;102676.44;4927745;29;20043;-70
2023/12/16 11:09:23;;;;;;;4.05;2.53;;;;;;;10.23;96.95;102669.41;4955525;28;20036;-69
2023/12/16 11:11:49;;;;;;;4.75;3.00;;;;;;;10.27;96.56;102665.84;4928179;29;20680;-69
2023/12/16 11:14:15;;;;;;;5.95;2.63;;;;;;;10.29;96.94;102662.84;4924901;29;20055;-69
2023/12/16 11:17:15;;;;;;;9.00;3.08;;;;;;;10.18;97.42;102664.94;4925191;29;20042;-69
2023/12/16 11:20:01;;;;;;;6.28;2.47;;;;;;;10.29;96.39;102660.13;4926650;29;20081;-69
2023/12/16 11:22:26;;;;;;;4.70;2.70;;;;;;;10.27;95.79;102655.06;4925562;29;20490;-69
2023/12/16 11:24:56;;;;;;;5.30;2.45;;;;;;;10.20;96.33;102637.72;4924206;29;20074;-70
2023/12/16 11:27:22;;;;;;;10.13;3.22;;;;;;;10.23;97.55;102648.69;4938357;29;20039;-70
2023/12/16 11:29:48;;;;;;;11.02;4.00;;;;;;;10.37;96.48;102635.19;4925742;28;20032;-70